Time;durP1;ratioP1;P1;durP2;ratioP2;P2;SDS_P1;SDS_P2;PMS_P1;PMS_P2;Temp;Humidity;BMP_temperature;BMP_pressure;BME280_temperature;BME280_humidity;BME280_pressure;Samples;Min_cycle;Max_cycle;Signal;HPM_P1;HPM_P2
2021/03/28 00:00:58;;;;;;;13.43;4.00;;;7.00;92.50;;;;;;4360766;32;20244;-66
2021/03/28 00:03:30;;;;;;;16.33;4.37;;;7.10;92.40;;;;;;4373124;32;20155;-67
2021/03/28 00:06:13;;;;;;;18.07;4.50;;;7.10;92.50;;;;;;4373514;32;20191;-67
2021/03/28 00:08:43;;;;;;;20.53;4.40;;;7.10;92.50;;;;;;4375187;32;20239;-66
2021/03/28 00:11:19;;;;;;;14.40;3.93;;;7.00;92.60;;;;;;4373238;32;20180;-65
2021/03/28 00:13:52;;;;;;;13.13;3.97;;;7.00;92.50;;;;;;4374963;32;20231;-67
2021/03/28 00:16:21;;;;;;;19.97;4.37;;;7.10;92.50;;;;;;4370789;32;20374;-65
2021/03/28 00:19:04;;;;;;;14.73;4.40;;;7.20;92.50;;;;;;4371772;32;20183;-65
2021/03/28 00:21:34;;;;;;;17.60;3.83;;;7.20;92.30;;;;;;4372972;32;20180;-68
2021/03/28 00:24:16;;;;;;;13.57;4.17;;;7.30;92.30;;;;;;4373327;32;20168;-68
2021/03/28 00:26:45;;;;;;;16.87;4.10;;;7.30;92.30;;;;;;4373942;32;20227;-65
2021/03/28 00:29:22;;;;;;;15.60;4.00;;;7.30;92.30;;;;;;4394463;32;20246;-65
2021/03/28 00:31:58;;;;;;;20.30;4.77;;;7.40;92.20;;;;;;4435961;32;20169;-65
2021/03/28 00:34:29;;;;;;;18.07;3.80;;;7.40;92.20;;;;;;4435475;32;20173;-68
2021/03/28 00:36:58;;;;;;;17.90;4.43;;;7.30;92.30;;;;;;4436156;32;20166;-70
2021/03/28 00:39:41;;;;;;;15.63;3.77;;;7.40;92.20;;;;;;4436622;32;20231;-68
2021/03/28 00:42:12;;;;;;;22.37;4.47;;;7.40;92.30;;;;;;4436238;32;20147;-65
2021/03/28 00:44:48;;;;;;;21.10;4.97;;;7.30;92.20;;;;;;4435143;32;20222;-66
2021/03/28 00:47:20;;;;;;;20.63;4.47;;;7.30;92.40;;;;;;4435814;32;20210;-66
2021/03/28 00:49:49;;;;;;;16.97;5.93;;;7.20;92.50;;;;;;4435203;32;20170;-70
2021/03/28 00:52:30;;;;;;;13.57;4.50;;;7.20;92.80;;;;;;4435501;32;20200;-66
2021/03/28 00:55:02;;;;;;;16.47;4.47;;;7.00;92.90;;;;;;4435766;32;20521;-65
2021/03/28 00:57:33;;;;;;;12.03;3.57;;;7.00;92.90;;;;;;4435668;32;20140;-65
2021/03/28 01:00:13;;;;;;;15.43;4.13;;;7.10;93.10;;;;;;4436303;32;20563;-65
2021/03/28 01:02:52;;;;;;;13.20;3.93;;;7.00;93.20;;;;;;4434894;32;20330;-67
2021/03/28 01:05:35;;;;;;;22.33;4.87;;;6.90;93.40;;;;;;4435364;32;20173;-66
2021/03/28 01:08:08;;;;;;;12.90;4.27;;;6.90;93.60;;;;;;4435191;32;20143;-65
2021/03/28 01:11:02;;;;;;;12.10;4.33;;;6.90;93.60;;;;;;4436918;32;20155;-66
2021/03/28 01:13:58;;;;;;;13.83;3.87;;;6.80;93.60;;;;;;4434783;32;20492;-65
2021/03/28 01:17:01;;;;;;;15.80;3.97;;;6.80;93.90;;;;;;4429274;32;20135;-65
2021/03/28 01:20:07;;;;;;;19.40;4.70;;;6.80;93.90;;;;;;4427789;32;20147;-65
2021/03/28 01:22:46;;;;;;;17.33;4.17;;;6.70;94.10;;;;;;4434863;32;20163;-65
2021/03/28 01:25:35;;;;;;;10.97;3.97;;;6.70;94.40;;;;;;4437309;32;20159;-65
2021/03/28 01:28:17;;;;;;;20.00;4.63;;;6.70;94.50;;;;;;4435923;32;20219;-65
2021/03/28 01:30:47;;;;;;;15.00;4.47;;;6.70;94.70;;;;;;4436824;32;20503;-65
2021/03/28 01:33:16;;;;;;;19.67;4.33;;;6.70;94.70;;;;;;4435448;32;20218;-65
2021/03/28 01:35:54;;;;;;;20.03;4.60;;;6.60;94.70;;;;;;4436656;32;20170;-65
2021/03/28 01:38:25;;;;;;;15.27;3.80;;;6.70;94.60;;;;;;4425511;32;20173;-65
2021/03/28 01:40:56;;;;;;;16.10;4.33;;;6.70;94.50;;;;;;4424844;32;20652;-65
2021/03/28 01:43:34;;;;;;;21.97;4.37;;;6.70;94.80;;;;;;4435074;32;20163;-65
2021/03/28 01:46:10;;;;;;;16.13;4.10;;;6.70;94.80;;;;;;4434459;32;20222;-65
2021/03/28 01:48:45;;;;;;;16.40;4.77;;;6.70;94.80;;;;;;4435112;32;20170;-65
2021/03/28 01:51:46;;;;;;;14.73;4.43;;;6.60;94.90;;;;;;4438167;32;20199;-64
2021/03/28 01:54:21;;;;;;;24.27;5.30;;;6.70;94.70;;;;;;4439509;32;20256;-64
2021/03/28 01:56:54;;;;;;;18.20;4.57;;;6.70;94.70;;;;;;4437224;32;20163;-65
2021/03/28 01:59:30;;;;;;;14.07;4.40;;;6.70;94.60;;;;;;4437538;32;20174;-65
2021/03/28 02:02:06;;;;;;;18.27;4.87;;;6.70;94.70;;;;;;4437424;32;20224;-64
2021/03/28 02:04:42;;;;;;;16.03;4.07;;;6.70;94.60;;;;;;4438926;32;20662;-64
2021/03/28 02:07:39;;;;;;;13.50;5.03;;;6.80;94.40;;;;;;4437356;32;20143;-67
2021/03/28 02:10:22;;;;;;;18.87;4.30;;;6.80;94.40;;;;;;4437626;32;20230;-64
2021/03/28 02:12:55;;;;;;;16.27;5.50;;;6.80;94.40;;;;;;4438898;32;20222;-67
2021/03/28 02:15:47;;;;;;;15.83;4.20;;;6.80;94.20;;;;;;4437844;32;20199;-65
2021/03/28 02:18:25;;;;;;;18.17;4.80;;;6.70;94.40;;;;;;4435223;32;20233;-67
2021/03/28 02:20:57;;;;;;;20.10;6.07;;;6.70;94.40;;;;;;4438444;32;20563;-65
2021/03/28 02:23:38;;;;;;;22.77;6.43;;;6.70;94.30;;;;;;4437813;32;20214;-65
2021/03/28 02:26:17;;;;;;;20.03;5.60;;;6.70;94.40;;;;;;4438275;32;20166;-68
2021/03/28 02:28:53;;;;;;;16.67;5.30;;;6.70;94.40;;;;;;4439096;32;20181;-67
2021/03/28 02:31:31;;;;;;;13.47;5.50;;;6.70;94.30;;;;;;4436887;32;20189;-68
2021/03/28 02:34:04;;;;;;;16.83;5.60;;;6.80;94.40;;;;;;4438550;32;20548;-65
2021/03/28 02:36:37;;;;;;;16.23;5.30;;;6.70;94.40;;;;;;4437583;32;20177;-69
2021/03/28 02:39:14;;;;;;;19.10;5.83;;;6.70;94.30;;;;;;4438058;32;20309;-68
2021/03/28 02:41:55;;;;;;;22.13;5.57;;;6.60;94.40;;;;;;4437017;32;20218;-67
2021/03/28 02:44:32;;;;;;;19.70;6.50;;;6.60;94.50;;;;;;4425962;32;20163;-69
2021/03/28 02:47:12;;;;;;;18.83;5.87;;;6.50;94.80;;;;;;4436663;32;20264;-68
2021/03/28 02:50:09;;;;;;;21.00;5.87;;;6.50;94.60;;;;;;4438575;32;20167;-66
2021/03/28 02:53:01;;;;;;;21.83;6.23;;;6.40;94.70;;;;;;4375341;32;20330;-68
2021/03/28 02:55:38;;;;;;;21.63;6.87;;;6.40;94.80;;;;;;4375501;32;20176;-67
2021/03/28 02:58:21;;;;;;;23.13;6.43;;;6.40;94.80;;;;;;4373614;32;20175;-69
2021/03/28 03:01:01;;;;;;;19.33;6.23;;;6.40;94.90;;;;;;4369788;32;20152;-69
2021/03/28 03:03:54;;;;;;;12.80;5.53;;;6.40;94.80;;;;;;4362299;32;20258;-67
2021/03/28 03:06:32;;;;;;;17.23;5.57;;;6.30;94.80;;;;;;4375218;32;20739;-67
2021/03/28 03:09:07;;;;;;;22.13;7.20;;;6.40;94.80;;;;;;4373894;32;20174;-68
2021/03/28 03:12:10;;;;;;;16.93;5.33;;;6.30;94.80;;;;;;4374014;32;20140;-66
2021/03/28 03:15:15;;;;;;;20.13;5.43;;;6.30;94.80;;;;;;4373739;32;20627;-67
2021/03/28 03:18:08;;;;;;;15.73;5.13;;;6.20;94.90;;;;;;4341255;33;20578;-68
2021/03/28 03:21:10;;;;;;;15.53;6.20;;;6.20;95.10;;;;;;4343519;33;20228;-69
2021/03/28 03:24:02;;;;;;;16.63;5.83;;;6.30;95.00;;;;;;4340351;33;20278;-66
2021/03/28 03:27:25;;;;;;;17.10;5.13;;;6.30;95.00;;;;;;4344467;33;20223;-66
2021/03/28 03:30:16;;;;;;;18.67;5.13;;;6.30;94.70;;;;;;4331230;33;20278;-64
2021/03/28 03:33:14;;;;;;;18.27;5.53;;;6.30;94.80;;;;;;4332549;33;20186;-67
2021/03/28 03:35:52;;;;;;;11.40;5.50;;;6.20;95.00;;;;;;4329321;33;20299;-66
2021/03/28 03:38:54;;;;;;;15.03;6.20;;;6.00;95.20;;;;;;4341463;33;20188;-66
2021/03/28 03:41:40;;;;;;;18.57;5.17;;;6.10;95.20;;;;;;4331232;33;20621;-69
2021/03/28 03:44:23;;;;;;;16.67;4.63;;;6.10;95.20;;;;;;4332913;33;20188;-67
2021/03/28 03:47:05;;;;;;;19.03;5.17;;;6.10;95.20;;;;;;4329130;33;20232;-68
2021/03/28 03:49:43;;;;;;;17.73;5.90;;;6.20;95.10;;;;;;4337507;33;20219;-68
2021/03/28 03:52:29;;;;;;;13.50;5.47;;;6.20;95.10;;;;;;4330918;33;20220;-68
2021/03/28 03:55:02;;;;;;;18.67;4.97;;;6.10;95.20;;;;;;4367254;32;20282;-65
2021/03/28 03:57:40;;;;;;;15.87;5.00;;;6.10;95.30;;;;;;4385696;32;20599;-66
2021/03/28 04:00:18;;;;;;;17.83;5.00;;;6.10;95.40;;;;;;4373994;32;20235;-67
2021/03/28 04:02:53;;;;;;;17.80;5.47;;;6.20;95.40;;;;;;4373503;32;20232;-67
2021/03/28 04:05:40;;;;;;;15.53;4.90;;;6.20;95.40;;;;;;4433196;32;20142;-67
2021/03/28 04:08:26;;;;;;;15.07;4.33;;;6.30;95.20;;;;;;4435828;32;20214;-68
2021/03/28 04:11:04;;;;;;;17.80;4.87;;;6.30;95.20;;;;;;4436744;32;20229;-68
2021/03/28 04:13:53;;;;;;;17.23;4.77;;;6.30;95.20;;;;;;4435259;32;20222;-69
2021/03/28 04:16:58;;;;;;;19.33;4.40;;;6.20;95.20;;;;;;4431250;32;20170;-65
2021/03/28 04:19:32;;;;;;;17.40;4.47;;;6.20;95.30;;;;;;4434442;32;20170;-64
2021/03/28 04:22:35;;;;;;;14.97;4.07;;;6.10;95.50;;;;;;4435978;32;20162;-66
2021/03/28 04:25:12;;;;;;;15.53;4.93;;;6.00;95.50;;;;;;4362337;32;20172;-66
2021/03/28 04:28:01;;;;;;;14.53;5.53;;;5.90;95.80;;;;;;4370220;32;20232;-66
2021/03/28 04:30:47;;;;;;;16.93;4.80;;;5.80;96.00;;;;;;4369492;32;20270;-67
2021/03/28 04:33:30;;;;;;;20.67;4.50;;;5.80;95.90;;;;;;4367741;32;20152;-67
2021/03/28 04:36:16;;;;;;;18.83;5.40;;;5.80;96.20;;;;;;4363786;32;20279;-67
2021/03/28 04:39:07;;;;;;;16.67;4.90;;;5.90;96.10;;;;;;4353450;33;20252;-67
2021/03/28 04:42:03;;;;;;;15.10;4.17;;;6.00;96.10;;;;;;4341613;33;20153;-66
2021/03/28 04:45:00;;;;;;;15.83;5.60;;;5.90;96.00;;;;;;4350569;32;20311;-66
2021/03/28 04:47:47;;;;;;;16.97;4.40;;;5.90;96.60;;;;;;4357262;32;20825;-66
2021/03/28 04:50:38;;;;;;;16.23;5.03;;;5.90;96.10;;;;;;4372282;32;20152;-66
2021/03/28 04:53:41;;;;;;;15.73;4.47;;;6.00;95.90;;;;;;4363779;32;20554;-65
2021/03/28 04:56:28;;;;;;;15.37;4.73;;;6.10;95.80;;;;;;4345918;33;20233;-66
2021/03/28 04:59:33;;;;;;;19.93;5.07;;;6.00;96.00;;;;;;4355542;32;20255;-66
2021/03/28 05:02:23;;;;;;;11.27;4.27;;;6.00;96.00;;;;;;4354918;32;20288;-66
2021/03/28 05:05:29;;;;;;;9.53;4.13;;;6.10;96.00;;;;;;4387748;32;20159;-66
2021/03/28 05:08:33;;;;;;;14.00;4.00;;;6.10;96.10;;;;;;4387356;32;20160;-65
2021/03/28 05:11:27;;;;;;;16.30;5.40;;;6.30;95.90;;;;;;4389568;32;20168;-66
2021/03/28 05:14:23;;;;;;;9.90;4.40;;;6.40;95.60;;;;;;4381683;32;20466;-65
2021/03/28 05:17:24;;;;;;;13.90;4.20;;;6.40;95.40;;;;;;4388873;32;20760;-66
2021/03/28 05:20:30;;;;;;;17.27;4.30;;;6.30;95.40;;;;;;4387597;32;20238;-66
2021/03/28 05:23:20;;;;;;;13.60;4.33;;;6.30;95.60;;;;;;4389436;32;20168;-66
2021/03/28 05:26:34;;;;;;;13.60;4.03;;;6.30;95.60;;;;;;4384442;32;20361;-66
2021/03/28 05:29:34;;;;;;;14.27;4.00;;;6.30;95.60;;;;;;4340194;33;20207;-68
2021/03/28 05:32:28;;;;;;;11.07;3.83;;;6.40;95.60;;;;;;4340931;33;20649;-70
2021/03/28 05:35:35;;;;;;;13.27;4.83;;;6.50;95.50;;;;;;4345172;33;20241;-69
2021/03/28 05:38:32;;;;;;;12.70;4.40;;;6.60;95.40;;;;;;4350422;32;20153;-66
2021/03/28 05:41:38;;;;;;;17.17;3.97;;;6.60;95.30;;;;;;4390214;32;20243;-66
2021/03/28 05:44:35;;;;;;;19.23;4.93;;;6.60;95.30;;;;;;4389742;32;20156;-66
2021/03/28 05:47:17;;;;;;;13.70;4.20;;;6.70;95.00;;;;;;4378859;32;20165;-66
2021/03/28 05:49:55;;;;;;;10.70;3.73;;;6.80;94.90;;;;;;4387337;32;20239;-66
2021/03/28 05:53:10;;;;;;;19.33;4.63;;;6.90;94.60;;;;;;4387864;32;20156;-66
2021/03/28 05:56:19;;;;;;;14.47;4.30;;;7.10;94.30;;;;;;4388443;32;20187;-65
2021/03/28 05:58:58;;;;;;;14.97;4.37;;;7.20;94.20;;;;;;4385858;32;20239;-66
2021/03/28 06:01:49;;;;;;;12.93;4.03;;;7.20;94.10;;;;;;4386776;32;20164;-65
2021/03/28 06:04:53;;;;;;;11.93;4.47;;;7.30;93.90;;;;;;4349154;32;20240;-65
2021/03/28 06:08:01;;;;;;;11.67;4.07;;;7.30;94.00;;;;;;4374609;32;20754;-65
2021/03/28 06:11:02;;;;;;;10.70;4.13;;;7.40;93.90;;;;;;4372238;32;20171;-65
2021/03/28 06:14:01;;;;;;;18.57;4.27;;;7.40;93.70;;;;;;4373272;32;20656;-65
2021/03/28 06:16:53;;;;;;;10.50;3.67;;;7.40;93.80;;;;;;4320777;33;20658;-66
2021/03/28 06:19:51;;;;;;;13.03;4.80;;;7.50;93.70;;;;;;4317677;33;20251;-66
2021/03/28 06:22:55;;;;;;;11.90;4.10;;;7.50;93.50;;;;;;4319428;33;20260;-66
2021/03/28 06:25:59;;;;;;;9.93;3.77;;;7.60;93.40;;;;;;4320198;33;20248;-66
2021/03/28 06:29:17;;;;;;;10.67;3.50;;;7.70;93.40;;;;;;4322982;33;20359;-66
2021/03/28 06:32:19;;;;;;;10.07;4.03;;;7.80;93.10;;;;;;4251318;33;20740;-66
2021/03/28 06:35:37;;;;;;;10.17;3.73;;;7.70;93.20;;;;;;4252457;33;20159;-66
2021/03/28 06:38:25;;;;;;;10.70;4.00;;;7.60;93.30;;;;;;4253587;33;20239;-66
2021/03/28 06:41:08;;;;;;;12.87;3.43;;;7.60;93.40;;;;;;4261242;33;20648;-65
2021/03/28 06:44:14;;;;;;;14.37;3.50;;;7.70;93.40;;;;;;4283713;33;20527;-65
2021/03/28 06:47:21;;;;;;;10.37;3.10;;;8.20;92.90;;;;;;4283361;33;20255;-65
2021/03/28 06:50:33;;;;;;;17.63;4.20;;;8.50;92.00;;;;;;4283882;33;20613;-65
2021/03/28 06:53:26;;;;;;;10.73;3.37;;;8.60;91.80;;;;;;4316209;33;20252;-65
2021/03/28 06:56:26;;;;;;;10.63;3.43;;;8.70;91.40;;;;;;4357659;33;20267;-66
2021/03/28 06:59:21;;;;;;;11.57;3.43;;;8.60;91.60;;;;;;4357056;32;20232;-67
2021/03/28 07:02:19;;;;;;;11.83;3.73;;;8.60;91.50;;;;;;4356683;33;20307;-67
2021/03/28 07:05:18;;;;;;;13.90;4.13;;;8.80;91.60;;;;;;4357012;32;20688;-67
2021/03/28 07:08:21;;;;;;;11.13;4.27;;;9.00;91.30;;;;;;4391124;32;20212;-69
2021/03/28 07:11:22;;;;;;;12.13;3.10;;;9.20;90.90;;;;;;4420548;32;20543;-68
2021/03/28 07:14:35;;;;;;;12.87;3.67;;;9.60;90.60;;;;;;4387684;32;20630;-65
2021/03/28 07:17:53;;;;;;;14.03;3.60;;;10.40;88.40;;;;;;4386100;32;20255;-63
2021/03/28 07:21:13;;;;;;;8.23;3.33;;;10.80;85.90;;;;;;4320836;33;20184;-63
2021/03/28 07:24:11;;;;;;;10.13;3.23;;;11.00;84.80;;;;;;4321849;33;20198;-63
2021/03/28 07:26:57;;;;;;;10.33;3.30;;;11.10;84.60;;;;;;4324112;33;20167;-64
2021/03/28 07:29:56;;;;;;;9.40;4.10;;;11.00;83.80;;;;;;4318581;33;20176;-64
2021/03/28 07:32:51;;;;;;;11.20;3.63;;;11.10;84.40;;;;;;4319332;33;20276;-65
2021/03/28 07:35:45;;;;;;;9.77;3.83;;;11.30;83.30;;;;;;4318027;33;20778;-66
2021/03/28 07:38:54;;;;;;;14.20;4.83;;;11.30;83.10;;;;;;4296426;33;20251;-65
2021/03/28 07:42:03;;;;;;;11.10;3.53;;;11.50;82.50;;;;;;4299158;33;20231;-64
2021/03/28 07:44:59;;;;;;;9.47;3.13;;;11.30;83.60;;;;;;4256516;33;20251;-67
2021/03/28 07:48:10;;;;;;;11.10;3.63;;;11.50;83.80;;;;;;4252429;33;20160;-65
2021/03/28 07:51:04;;;;;;;9.43;3.80;;;11.70;82.40;;;;;;4273073;33;20168;-66
2021/03/28 07:54:03;;;;;;;10.00;4.10;;;11.80;82.40;;;;;;4293360;33;20238;-67
2021/03/28 07:57:03;;;;;;;10.97;3.73;;;12.00;82.30;;;;;;4308997;33;20170;-67
2021/03/28 07:59:45;;;;;;;11.83;4.20;;;12.20;82.30;;;;;;4297088;33;20185;-67
2021/03/28 08:02:29;;;;;;;11.13;4.43;;;12.40;80.30;;;;;;4290266;33;20233;-68
2021/03/28 08:05:26;;;;;;;13.13;4.00;;;12.90;79.40;;;;;;4288111;33;20266;-65
2021/03/28 08:07:55;;;;;;;9.20;4.00;;;12.80;79.40;;;;;;4296380;33;20237;-68
2021/03/28 08:11:00;;;;;;;12.10;4.33;;;12.90;78.80;;;;;;4297780;33;20279;-66
2021/03/28 08:14:11;;;;;;;15.10;4.03;;;13.20;78.40;;;;;;4247720;33;20672;-67
2021/03/28 08:17:17;;;;;;;10.27;4.03;;;13.60;77.10;;;;;;4285837;33;20236;-65
2021/03/28 08:20:18;;;;;;;10.30;3.43;;;14.00;75.50;;;;;;4241751;33;20237;-66
2021/03/28 08:23:15;;;;;;;11.63;3.40;;;14.00;74.20;;;;;;4252976;33;20644;-66
2021/03/28 08:25:56;;;;;;;13.40;4.47;;;14.20;74.60;;;;;;4252974;33;21055;-68
2021/03/28 08:28:43;;;;;;;10.83;3.73;;;14.00;75.00;;;;;;4251361;33;20268;-68
2021/03/28 08:31:21;;;;;;;12.40;4.30;;;13.70;75.50;;;;;;4252946;33;20333;-68
2021/03/28 08:34:25;;;;;;;9.67;3.67;;;13.20;76.80;;;;;;4249401;33;20587;-65
2021/03/28 08:37:34;;;;;;;11.80;3.73;;;13.00;78.00;;;;;;4275031;33;20752;-66
2021/03/28 08:40:33;;;;;;;13.87;3.93;;;13.40;77.40;;;;;;4267088;33;20151;-66
2021/03/28 08:43:46;;;;;;;18.10;4.53;;;13.60;75.60;;;;;;4267787;33;20186;-67
2021/03/28 08:46:44;;;;;;;8.37;3.77;;;13.50;77.20;;;;;;4262239;33;20238;-68
2021/03/28 08:49:17;;;;;;;9.87;4.07;;;14.20;74.60;;;;;;4235094;33;20306;-67
2021/03/28 08:52:03;;;;;;;9.07;3.47;;;14.00;75.20;;;;;;4246721;33;20198;-66
2021/03/28 08:54:41;;;;;;;11.60;3.40;;;13.90;75.00;;;;;;4246438;33;20229;-65
2021/03/28 08:57:28;;;;;;;9.50;3.70;;;14.10;74.90;;;;;;4282257;33;20236;-68
2021/03/28 09:00:19;;;;;;;18.13;4.23;;;13.90;74.30;;;;;;4321292;33;20251;-66
2021/03/28 09:02:58;;;;;;;13.40;4.32;;;14.00;72.50;;;;;;4316171;33;20098;-65
2021/03/28 09:05:33;;;;;;;9.97;3.53;;;14.00;73.80;;;;;;4323933;33;21820;-65
2021/03/28 09:08:15;;;;;;;8.33;3.43;;;14.40;73.10;;;;;;4318817;33;20743;-65
2021/03/28 09:11:21;;;;;;;10.00;2.90;;;14.40;71.40;;;;;;4324458;33;20153;-66
2021/03/28 09:13:52;;;;;;;10.63;3.17;;;15.00;70.50;;;;;;4326575;33;20299;-67
2021/03/28 09:16:46;;;;;;;11.93;3.93;;;15.50;68.00;;;;;;4365674;32;20278;-67
2021/03/28 09:19:17;;;;;;;12.90;3.03;;;15.50;66.90;;;;;;4369880;32;20153;-67
2021/03/28 09:22:13;;;;;;;11.83;2.70;;;15.40;66.90;;;;;;4375514;32;20218;-67
2021/03/28 09:24:48;;;;;;;12.03;4.13;;;15.00;67.40;;;;;;4374714;32;20286;-68
2021/03/28 09:27:38;;;;;;;16.60;3.23;;;14.90;67.20;;;;;;4435459;32;20661;-68
2021/03/28 09:30:29;;;;;;;11.00;2.73;;;14.40;68.20;;;;;;4435572;32;20139;-68
2021/03/28 09:33:18;;;;;;;13.47;3.07;;;14.30;68.80;;;;;;4435625;32;20171;-64
2021/03/28 09:36:28;;;;;;;12.40;3.50;;;14.30;68.80;;;;;;4432732;32;20198;-66
2021/03/28 09:39:16;;;;;;;10.20;3.50;;;14.40;68.10;;;;;;4428381;32;20169;-66
2021/03/28 09:42:16;;;;;;;10.00;2.90;;;14.40;67.10;;;;;;4430584;32;20231;-65
2021/03/28 09:45:06;;;;;;;10.07;3.13;;;14.30;66.00;;;;;;4436318;32;20148;-66
2021/03/28 09:47:38;;;;;;;12.37;3.03;;;14.20;66.30;;;;;;4440296;32;20230;-68
2021/03/28 09:50:21;;;;;;;11.90;3.40;;;14.10;66.10;;;;;;4436942;32;20230;-66
2021/03/28 09:53:08;;;;;;;12.10;3.20;;;13.90;66.60;;;;;;4438990;32;20218;-66
2021/03/28 09:55:54;;;;;;;10.57;2.90;;;13.80;67.70;;;;;;4435648;32;20176;-68
2021/03/28 09:59:12;;;;;;;10.53;3.20;;;14.10;66.90;;;;;;4438342;32;20185;-66
2021/03/28 10:01:53;;;;;;;10.97;3.77;;;13.80;68.10;;;;;;4342443;33;20164;-66
2021/03/28 10:04:49;;;;;;;9.17;3.13;;;13.50;71.40;;;;;;4344872;33;20153;-67
2021/03/28 10:07:23;;;;;;;11.43;3.33;;;13.20;70.70;;;;;;4342431;33;20174;-66
2021/03/28 10:10:08;;;;;;;11.23;2.90;;;13.10;72.20;;;;;;4343113;33;20185;-67
2021/03/28 10:12:45;;;;;;;7.93;2.87;;;13.30;71.80;;;;;;4342497;33;20578;-65
2021/03/28 10:15:18;;;;;;;10.57;3.07;;;13.40;71.50;;;;;;4331500;33;20203;-67
2021/03/28 10:17:51;;;;;;;10.30;3.10;;;13.10;72.20;;;;;;4343588;33;20207;-65
2021/03/28 10:20:51;;;;;;;9.93;3.43;;;13.20;72.40;;;;;;4346653;33;20489;-67
2021/03/28 10:23:38;;;;;;;11.80;3.13;;;13.20;72.60;;;;;;4336788;33;20189;-67
2021/03/28 10:26:18;;;;;;;13.20;3.53;;;13.20;73.40;;;;;;4344413;33;20236;-68
2021/03/28 10:29:10;;;;;;;11.73;3.20;;;13.00;74.40;;;;;;4344737;33;20236;-66
2021/03/28 10:31:52;;;;;;;14.10;3.40;;;12.80;73.60;;;;;;4346090;33;20281;-66
2021/03/28 10:35:07;;;;;;;11.10;3.00;;;12.60;74.00;;;;;;4343194;32;20303;-65
2021/03/28 10:37:46;;;;;;;16.60;4.00;;;12.50;75.50;;;;;;4370054;32;20149;-68
2021/03/28 10:40:28;;;;;;;15.43;4.10;;;12.50;75.80;;;;;;4435924;32;20151;-69
2021/03/28 10:43:04;;;;;;;14.93;3.13;;;12.80;74.90;;;;;;4437432;32;20150;-67
2021/03/28 10:45:57;;;;;;;10.63;3.20;;;12.60;76.20;;;;;;4435905;32;20173;-64
2021/03/28 10:49:19;;;;;;;10.57;3.00;;;12.50;77.90;;;;;;4430367;32;20169;-67
2021/03/28 10:52:21;;;;;;;12.47;3.13;;;12.30;77.90;;;;;;4426104;32;20218;-66
2021/03/28 10:55:20;;;;;;;8.83;3.20;;;12.10;79.70;;;;;;4433217;32;20197;-66
2021/03/28 10:58:31;;;;;;;7.77;2.97;;;12.00;79.40;;;;;;4432454;32;20527;-68
2021/03/28 11:01:31;;;;;;;9.20;2.60;;;11.90;80.70;;;;;;4436854;32;20163;-69
2021/03/28 11:04:35;;;;;;;8.30;2.70;;;12.00;79.50;;;;;;4433058;32;20254;-67
2021/03/28 11:07:42;;;;;;;14.57;3.23;;;12.20;78.20;;;;;;4429042;32;20212;-68
2021/03/28 11:10:53;;;;;;;8.57;3.00;;;12.30;77.80;;;;;;4427430;32;20227;-67
2021/03/28 11:13:54;;;;;;;9.37;3.40;;;12.20;77.40;;;;;;4427377;32;20203;-67
2021/03/28 11:16:46;;;;;;;12.43;2.70;;;12.10;78.40;;;;;;4433513;32;20166;-67
2021/03/28 11:19:56;;;;;;;17.83;4.23;;;12.00;78.60;;;;;;4432012;32;20217;-67
2021/03/28 11:22:34;;;;;;;13.33;5.67;;;12.00;78.70;;;;;;4426198;32;20216;-67
2021/03/28 11:25:20;;;;;;;13.73;3.80;;;12.10;77.70;;;;;;4432061;32;20595;-67
2021/03/28 11:28:20;;;;;;;15.13;5.13;;;12.30;77.50;;;;;;4424208;32;20237;-67
2021/03/28 11:30:49;;;;;;;19.70;8.80;;;12.30;78.30;;;;;;4431830;32;20210;-68
2021/03/28 11:33:27;;;;;;;10.70;4.77;;;12.40;77.10;;;;;;4427628;32;20206;-67
2021/03/28 11:36:18;;;;;;;16.17;4.40;;;12.50;77.10;;;;;;4428856;32;20487;-66
2021/03/28 11:39:11;;;;;;;12.93;5.17;;;12.50;77.00;;;;;;4426351;32;20584;-68
2021/03/28 11:41:51;;;;;;;24.80;12.17;;;12.60;77.00;;;;;;4424453;32;20146;-67
2021/03/28 11:44:31;;;;;;;16.80;6.47;;;12.60;76.70;;;;;;4432011;32;20167;-65
2021/03/28 11:47:19;;;;;;;11.40;3.37;;;12.70;76.80;;;;;;4426982;32;20219;-67
2021/03/28 11:49:57;;;;;;;11.07;4.70;;;12.70;76.40;;;;;;4432581;32;20178;-68
2021/03/28 11:52:33;;;;;;;13.10;5.30;;;12.70;76.90;;;;;;4428226;32;20159;-68
2021/03/28 11:55:09;;;;;;;22.57;4.13;;;12.70;77.20;;;;;;4423799;32;20619;-67
2021/03/28 11:57:37;;;;;;;16.33;5.47;;;12.70;76.80;;;;;;4431016;32;20139;-68
2021/03/28 12:00:40;;;;;;;9.47;4.33;;;12.60;77.30;;;;;;4427723;32;20147;-69
2021/03/28 12:03:36;;;;;;;12.40;3.17;;;12.50;77.90;;;;;;4434088;32;20252;-68
2021/03/28 12:06:06;;;;;;;12.27;4.07;;;12.60;78.00;;;;;;4430106;32;20147;-67
2021/03/28 12:08:35;;;;;;;14.77;4.93;;;12.50;77.80;;;;;;4431270;32;20163;-67
2021/03/28 12:11:40;;;;;;;27.97;13.93;;;12.60;78.20;;;;;;4430906;32;20685;-66
2021/03/28 12:14:19;;;;;;;24.47;13.37;;;12.40;77.10;;;;;;4431130;32;20206;-67
2021/03/28 12:17:24;;;;;;;17.27;6.70;;;12.30;77.20;;;;;;4432156;32;20166;-68
2021/03/28 12:20:13;;;;;;;12.77;5.10;;;12.30;78.30;;;;;;4432872;32;20556;-69
2021/03/28 12:23:02;;;;;;;15.10;4.50;;;12.30;77.60;;;;;;4422548;32;20186;-66
2021/03/28 12:25:35;;;;;;;18.07;3.67;;;12.20;77.30;;;;;;4431182;32;20225;-66
2021/03/28 12:28:26;;;;;;;17.17;3.73;;;12.00;78.00;;;;;;4425267;32;20170;-67
2021/03/28 12:30:54;;;;;;;10.90;3.17;;;12.30;78.10;;;;;;4417644;32;20167;-67
2021/03/28 12:33:22;;;;;;;13.80;3.43;;;12.60;77.10;;;;;;4429111;32;20160;-66
2021/03/28 12:36:02;;;;;;;14.60;3.60;;;12.80;76.30;;;;;;4427997;32;20163;-66
2021/03/28 12:39:08;;;;;;;11.40;3.17;;;12.90;75.70;;;;;;4426343;32;20232;-67
2021/03/28 12:41:36;;;;;;;15.70;3.17;;;13.00;76.20;;;;;;4428468;32;20189;-66
2021/03/28 12:44:26;;;;;;;11.27;3.27;;;13.10;75.70;;;;;;4426706;32;20545;-66
2021/03/28 12:47:00;;;;;;;55.07;30.40;;;13.10;76.10;;;;;;4428943;32;20285;-66
2021/03/28 12:49:34;;;;;;;21.40;9.23;;;13.10;75.50;;;;;;4432710;32;20155;-66
2021/03/28 12:52:34;;;;;;;18.43;5.87;;;12.80;76.70;;;;;;4424669;32;20162;-67
2021/03/28 12:55:18;;;;;;;11.40;3.43;;;12.60;78.20;;;;;;4365982;32;20162;-67
2021/03/28 12:57:47;;;;;;;8.43;4.07;;;12.70;77.50;;;;;;4367132;32;20180;-65
2021/03/28 13:00:19;;;;;;;13.27;3.40;;;12.60;77.70;;;;;;4369537;32;20238;-67
2021/03/28 13:02:48;;;;;;;10.60;3.90;;;12.50;78.10;;;;;;4368908;32;20164;-66
2021/03/28 13:05:25;;;;;;;14.50;3.90;;;12.40;78.30;;;;;;4367018;32;20245;-66
2021/03/28 13:07:53;;;;;;;13.77;4.17;;;12.40;78.30;;;;;;4368675;32;20953;-63
2021/03/28 13:10:29;;;;;;;11.13;3.87;;;12.30;78.80;;;;;;4363934;32;20159;-66
2021/03/28 13:13:01;;;;;;;8.67;3.23;;;12.20;79.40;;;;;;4365755;32;20259;-68
2021/03/28 13:15:36;;;;;;;14.20;4.10;;;12.20;79.60;;;;;;4369620;32;20568;-66
2021/03/28 13:18:15;;;;;;;15.27;3.93;;;12.20;79.60;;;;;;4366246;32;20283;-68
2021/03/28 13:20:44;;;;;;;33.43;17.73;;;12.20;80.30;;;;;;4367876;32;20279;-67
2021/03/28 13:23:31;;;;;;;31.37;13.70;;;12.20;80.30;;;;;;4364716;32;20172;-68
2021/03/28 13:26:14;;;;;;;25.70;7.47;;;12.30;79.90;;;;;;4365226;32;20781;-67
2021/03/28 13:28:43;;;;;;;14.63;5.03;;;12.30;80.40;;;;;;4368344;32;20275;-66
2021/03/28 13:31:29;;;;;;;13.40;4.70;;;12.30;80.00;;;;;;4370569;32;20258;-66
2021/03/28 13:34:23;;;;;;;14.90;4.90;;;12.40;80.00;;;;;;4424943;32;20617;-66
2021/03/28 13:36:59;;;;;;;10.53;4.03;;;12.40;80.00;;;;;;4419995;32;20213;-67
2021/03/28 13:39:27;;;;;;;12.07;3.77;;;12.60;79.60;;;;;;4422977;32;20272;-66
2021/03/28 13:42:27;;;;;;;10.57;4.27;;;12.60;79.50;;;;;;4420546;32;21071;-67
2021/03/28 13:44:58;;;;;;;12.40;4.30;;;12.70;79.30;;;;;;4420075;32;20143;-68
2021/03/28 13:47:39;;;;;;;31.83;12.37;;;12.70;79.60;;;;;;4424608;32;20183;-67
2021/03/28 13:50:38;;;;;;;34.17;13.60;;;12.80;80.00;;;;;;4423624;32;20344;-66
2021/03/28 13:53:25;;;;;;;36.60;14.80;;;12.80;79.70;;;;;;4422892;32;20171;-66
2021/03/28 13:56:03;;;;;;;34.07;12.43;;;13.00;78.90;;;;;;4411036;32;20311;-65
2021/03/28 13:58:33;;;;;;;63.33;29.13;;;13.00;79.20;;;;;;4422483;32;20234;-67
2021/03/28 14:01:12;;;;;;;51.93;24.30;;;13.50;78.50;;;;;;4424988;32;20248;-67
2021/03/28 14:03:40;;;;;;;40.43;21.47;;;13.70;76.60;;;;;;4426731;32;20717;-68
2021/03/28 14:06:21;;;;;;;25.93;11.00;;;14.00;76.20;;;;;;4418896;32;20147;-67
2021/03/28 14:08:51;;;;;;;40.63;15.97;;;14.00;75.50;;;;;;4419307;32;20313;-67
2021/03/28 14:11:24;;;;;;;23.83;10.03;;;14.30;75.30;;;;;;4423974;32;20275;-66
2021/03/28 14:14:02;;;;;;;19.93;5.30;;;14.40;74.00;;;;;;4419559;32;20222;-68
2021/03/28 14:16:30;;;;;;;18.50;9.53;;;14.40;74.00;;;;;;4429559;32;20154;-68
2021/03/28 14:19:10;;;;;;;25.27;12.07;;;14.30;74.40;;;;;;4426097;32;20178;-68
2021/03/28 14:21:39;;;;;;;12.87;4.50;;;14.20;74.70;;;;;;4430683;32;20143;-66
2021/03/28 14:24:22;;;;;;;18.70;7.13;;;14.30;74.20;;;;;;4429702;32;20170;-66
2021/03/28 14:26:52;;;;;;;14.47;4.80;;;14.40;74.50;;;;;;4429261;32;20152;-66